createdAt,value
2022-10-03T00:00:39.974Z,1.47
2022-10-03T00:03:21.697Z,1.10
2022-10-03T00:06:03.109Z,1.30
2022-10-03T00:09:03.376Z,1.20
2022-10-03T00:11:40.778Z,1.17
2022-10-03T00:14:14.163Z,1.20
2022-10-03T00:16:44.561Z,1.10
2022-10-03T00:19:17.518Z,1.23
2022-10-03T00:21:53.062Z,1.20
2022-10-03T00:24:25.290Z,1.17
2022-10-03T00:26:57.490Z,1.10
2022-10-03T00:29:47.957Z,1.20
2022-10-03T00:32:31.787Z,1.10
2022-10-03T00:35:08.024Z,1.10
2022-10-03T00:37:37.775Z,1.00
2022-10-03T00:40:36.826Z,1.17
2022-10-03T00:43:37.326Z,1.10
2022-10-03T00:46:35.065Z,1.40
2022-10-03T00:49:41.830Z,1.10
2022-10-03T00:52:20.305Z,1.10
2022-10-03T00:54:55.905Z,1.00
2022-10-03T00:57:35.920Z,1.20
2022-10-03T01:00:14.208Z,0.90
2022-10-03T01:02:49.619Z,0.90
2022-10-03T01:05:22.451Z,0.93
2022-10-03T01:07:59.600Z,1.20
2022-10-03T01:10:30.903Z,1.20
2022-10-03T01:13:07.207Z,1.13
2022-10-03T01:15:41.857Z,1.20
2022-10-03T01:18:20.098Z,1.00
2022-10-03T01:20:53.854Z,1.00
2022-10-03T01:23:51.242Z,1.23
2022-10-03T01:26:43.262Z,1.00
2022-10-03T01:29:30.945Z,1.10
2022-10-03T01:32:01.242Z,0.90
2022-10-03T01:34:32.705Z,1.03
2022-10-03T01:37:06.252Z,0.90
2022-10-03T01:39:38.315Z,0.93
2022-10-03T01:42:10.095Z,1.10
2022-10-03T01:44:45.543Z,0.80
2022-10-03T01:47:19.961Z,1.00
2022-10-03T01:49:49.916Z,1.00
2022-10-03T01:52:20.692Z,0.90
2022-10-03T01:54:52.160Z,1.00
2022-10-03T01:57:22.365Z,0.83
2022-10-03T01:59:55.314Z,1.00
2022-10-03T02:02:29.517Z,1.00
2022-10-03T02:05:02.024Z,1.03
2022-10-03T02:07:32.019Z,1.10
2022-10-03T02:10:03.970Z,0.87
2022-10-03T02:12:35.025Z,0.80
2022-10-03T02:15:14.307Z,1.10
2022-10-03T02:17:49.989Z,0.77
2022-10-03T02:20:25.599Z,1.00
2022-10-03T02:22:54.844Z,0.90
2022-10-03T02:25:26.594Z,0.90
2022-10-03T02:28:24.984Z,0.90
2022-10-03T02:31:07.645Z,0.73
2022-10-03T02:33:49.216Z,0.90
2022-10-03T02:36:44.571Z,1.00
2022-10-03T02:39:27.019Z,1.00
2022-10-03T02:42:25.046Z,1.00
2022-10-03T02:45:06.044Z,0.97
2022-10-03T02:48:30.548Z,1.00
2022-10-03T02:51:17.126Z,0.90
2022-10-03T02:53:58.309Z,0.83
2022-10-03T02:56:59.559Z,0.90
2022-10-03T02:59:46.637Z,1.00
2022-10-03T03:02:41.998Z,0.97
2022-10-03T03:05:44.998Z,0.80
2022-10-03T03:08:37.805Z,1.00
2022-10-03T03:11:40.012Z,0.90
2022-10-03T03:14:47.074Z,0.80
2022-10-03T03:17:30.900Z,0.97
2022-10-03T03:20:06.816Z,0.93
2022-10-03T03:22:41.558Z,0.90
2022-10-03T03:25:23.109Z,1.00
2022-10-03T03:27:58.194Z,1.30
2022-10-03T03:30:28.457Z,2.27
2022-10-03T03:33:07.518Z,2.33
2022-10-03T03:35:43.497Z,2.77
2022-10-03T03:38:20.974Z,4.70
2022-10-03T03:40:56.961Z,9.83
2022-10-03T03:43:34.321Z,6.90
2022-10-03T03:46:09.634Z,5.70
2022-10-03T03:48:59.960Z,13.53
2022-10-03T03:51:34.993Z,13.53
2022-10-03T03:54:40.206Z,9.93
2022-10-03T03:57:32.969Z,12.13
2022-10-03T04:00:09.259Z,10.37
2022-10-03T04:02:53.419Z,18.33
2022-10-03T04:05:28.734Z,19.60
2022-10-03T04:08:12.038Z,18.47
2022-10-03T04:10:48.445Z,23.80
2022-10-03T04:13:47.695Z,19.50
2022-10-03T04:16:40.378Z,21.73
2022-10-03T04:19:09.783Z,20.73
2022-10-03T04:21:55.558Z,21.43
2022-10-03T04:24:36.392Z,26.33
2022-10-03T04:27:13.137Z,20.50
2022-10-03T04:29:47.989Z,22.40
2022-10-03T04:32:26.700Z,21.23
2022-10-03T04:35:04.880Z,22.30
2022-10-03T04:37:35.324Z,23.07
2022-10-03T04:40:18.173Z,26.83
2022-10-03T04:42:51.240Z,20.37
2022-10-03T04:45:29.100Z,21.97
2022-10-03T04:48:00.200Z,20.73
2022-10-03T04:50:32.681Z,23.17
2022-10-03T04:53:23.136Z,20.40
2022-10-03T04:55:53.290Z,20.83
2022-10-03T04:58:27.367Z,23.47
2022-10-03T05:01:01.761Z,22.30
2022-10-03T05:03:36.833Z,21.47
2022-10-03T05:06:06.966Z,17.70
2022-10-03T05:08:39.338Z,20.97
2022-10-03T05:11:16.005Z,25.97
2022-10-03T05:13:59.069Z,20.07
2022-10-03T05:16:33.340Z,18.00
2022-10-03T05:19:10.361Z,24.20
2022-10-03T05:21:41.096Z,24.07
2022-10-03T05:24:15.551Z,24.10
2022-10-03T05:26:47.626Z,24.97
2022-10-03T05:29:25.218Z,24.33
2022-10-03T05:32:01.145Z,19.43
2022-10-03T05:34:35.444Z,21.63
2022-10-03T05:37:14.275Z,18.83
2022-10-03T05:39:43.914Z,22.40
2022-10-03T05:42:40.688Z,24.07
2022-10-03T05:45:21.609Z,24.20
2022-10-03T05:47:51.576Z,19.30
2022-10-03T05:50:50.557Z,17.23
2022-10-03T05:53:41.793Z,19.13
2022-10-03T05:56:10.311Z,19.90
2022-10-03T05:59:25.880Z,17.23
2022-10-03T06:02:36.366Z,16.70
2022-10-03T06:05:13.927Z,16.03
2022-10-03T06:07:48.168Z,15.87
2022-10-03T06:10:50.781Z,18.80
2022-10-03T06:13:22.321Z,18.13
2022-10-03T06:15:57.649Z,21.00
2022-10-03T06:18:58.334Z,18.87
2022-10-03T06:21:45.156Z,19.90
2022-10-03T06:24:33.743Z,17.77
2022-10-03T06:27:39.785Z,16.17
2022-10-03T06:30:14.024Z,19.10
2022-10-03T06:33:15.498Z,17.20
2022-10-03T06:36:18.601Z,13.90
2022-10-03T06:39:26.303Z,13.00
2022-10-03T06:42:17.399Z,13.93
2022-10-03T06:45:05.975Z,15.63
2022-10-03T06:47:57.137Z,17.00
2022-10-03T06:50:51.469Z,14.57
2022-10-03T06:53:28.567Z,14.80
2022-10-03T06:56:24.427Z,18.10
2022-10-03T06:59:37.260Z,12.93
2022-10-03T07:02:37.671Z,15.23
2022-10-03T07:05:39.859Z,12.97
2022-10-03T07:08:53.313Z,14.27
2022-10-03T07:11:57.532Z,13.43
2022-10-03T07:14:52.925Z,14.93
2022-10-03T07:17:30.120Z,12.87
2022-10-03T07:20:07.243Z,12.40
2022-10-03T07:23:20.433Z,11.53
2022-10-03T07:26:18.944Z,13.23
2022-10-03T07:29:14.048Z,13.27
2022-10-03T07:31:55.901Z,12.20
2022-10-03T07:35:08.841Z,11.83
2022-10-03T07:38:02.247Z,10.70
2022-10-03T07:41:00.634Z,10.00
2022-10-03T07:43:58.988Z,9.17
2022-10-03T07:46:43.989Z,8.40
2022-10-03T07:49:19.103Z,10.53
2022-10-03T07:51:54.128Z,8.87
2022-10-03T07:54:39.037Z,8.73
2022-10-03T07:57:31.053Z,8.70
2022-10-03T08:00:24.592Z,8.70
2022-10-03T08:03:37.054Z,9.33
2022-10-03T08:06:24.528Z,9.17
2022-10-03T08:09:18.789Z,6.47
2022-10-03T08:12:11.887Z,6.37
2022-10-03T08:14:46.236Z,5.63
2022-10-03T08:18:03.065Z,6.63
2022-10-03T08:20:40.054Z,7.00
2022-10-03T08:23:38.058Z,8.80
2022-10-03T08:26:12.006Z,7.00
2022-10-03T08:28:58.700Z,7.63
2022-10-03T08:31:56.351Z,5.63
2022-10-03T08:34:43.554Z,6.17
2022-10-03T08:37:56.416Z,5.33
2022-10-03T08:40:57.767Z,5.00
2022-10-03T08:44:07.222Z,5.80
2022-10-03T08:47:11.606Z,6.23
2022-10-03T08:50:08.156Z,5.73
2022-10-03T08:52:42.186Z,4.43
2022-10-03T08:55:45.467Z,5.17
2022-10-03T08:58:38.867Z,5.70
2022-10-03T09:01:18.512Z,5.27
2022-10-03T09:04:14.023Z,4.63
2022-10-03T09:07:18.690Z,4.47
2022-10-03T09:10:38.187Z,4.83
2022-10-03T09:13:46.337Z,4.30
2022-10-03T09:16:53.496Z,4.03
2022-10-03T09:19:29.995Z,4.83
2022-10-03T09:22:10.891Z,4.67
2022-10-03T09:25:06.877Z,4.57
2022-10-03T09:27:50.190Z,4.43
2022-10-03T09:30:22.954Z,3.93
2022-10-03T09:33:45.147Z,4.03
2022-10-03T09:36:32.939Z,4.43
2022-10-03T09:39:42.645Z,4.07
2022-10-03T09:42:52.547Z,3.73
2022-10-03T09:45:53.818Z,3.70
2022-10-03T09:48:39.104Z,4.20
2022-10-03T09:51:22.867Z,3.93
2022-10-03T09:54:32.031Z,2.93
2022-10-03T09:57:45.638Z,3.37
2022-10-03T10:00:18.740Z,3.27
2022-10-03T10:03:28.236Z,3.70
2022-10-03T10:06:15.612Z,3.70
2022-10-03T10:09:05.839Z,3.80
2022-10-03T10:11:56.189Z,3.53
2022-10-03T10:14:41.225Z,3.40
2022-10-03T10:17:36.256Z,3.23
2022-10-03T10:20:10.041Z,3.30
2022-10-03T10:22:52.813Z,3.30
2022-10-03T10:25:50.476Z,3.27
2022-10-03T10:28:47.523Z,3.93
2022-10-03T10:31:54.682Z,3.17
2022-10-03T10:34:52.431Z,3.03
2022-10-03T10:37:37.256Z,3.30
2022-10-03T10:40:59.860Z,3.43
2022-10-03T10:44:03.551Z,3.10
2022-10-03T10:47:07.245Z,3.00
2022-10-03T10:50:03.269Z,2.90
2022-10-03T10:53:04.790Z,3.13
2022-10-03T10:56:27.633Z,2.93
2022-10-03T10:59:38.191Z,3.07
2022-10-03T11:02:38.859Z,2.60
2022-10-03T11:05:42.410Z,3.17
2022-10-03T11:08:45.824Z,2.57
2022-10-03T11:11:57.912Z,2.80
2022-10-03T11:14:51.867Z,2.63
2022-10-03T11:17:45.645Z,2.73
2022-10-03T11:20:46.159Z,2.80
2022-10-03T11:23:30.775Z,2.70
2022-10-03T11:26:21.170Z,3.17
2022-10-03T11:29:15.762Z,2.77
2022-10-03T11:32:14.155Z,2.90
2022-10-03T11:35:02.647Z,2.50
2022-10-03T11:37:42.235Z,2.77
2022-10-03T11:40:28.427Z,3.40
2022-10-03T11:43:01.592Z,2.67
2022-10-03T11:45:33.077Z,3.20
2022-10-03T11:48:19.747Z,3.33
2022-10-03T11:50:49.200Z,3.03
2022-10-03T11:53:24.261Z,2.60
2022-10-03T11:55:58.987Z,2.63
2022-10-03T11:58:36.486Z,2.83
2022-10-03T12:01:17.702Z,2.93
2022-10-03T12:03:48.811Z,2.73
2022-10-03T12:06:35.608Z,3.17
2022-10-03T12:09:08.233Z,3.10
2022-10-03T12:11:39.313Z,2.60
2022-10-03T12:14:24.061Z,2.87
2022-10-03T12:17:05.789Z,3.13
2022-10-03T12:19:36.877Z,3.13
2022-10-03T12:22:10.091Z,2.97
2022-10-03T12:24:38.496Z,3.10
2022-10-03T12:27:15.551Z,3.00
2022-10-03T12:29:47.818Z,3.50
2022-10-03T12:32:23.297Z,3.43
2022-10-03T12:34:55.079Z,3.20
2022-10-03T12:37:41.734Z,3.33
2022-10-03T12:40:16.096Z,3.03
2022-10-03T12:42:48.499Z,2.97
2022-10-03T12:45:24.178Z,3.27
2022-10-03T12:48:00.560Z,3.40
2022-10-03T12:50:40.714Z,11.57
2022-10-03T12:53:38.799Z,7.73
2022-10-03T12:56:08.940Z,3.70
2022-10-03T12:58:44.596Z,3.60
2022-10-03T13:01:16.698Z,3.10
2022-10-03T13:03:52.107Z,3.30
2022-10-03T13:06:58.288Z,5.23
2022-10-03T13:09:25.714Z,3.53
2022-10-03T13:12:00.229Z,2.53
2022-10-03T13:14:43.445Z,5.63
2022-10-03T13:17:17.834Z,4.57
2022-10-03T13:19:49.649Z,5.80
2022-10-03T13:22:26.912Z,8.03
2022-10-03T13:24:58.577Z,17.03
2022-10-03T13:27:32.795Z,19.87
2022-10-03T13:30:06.018Z,28.03
2022-10-03T13:32:34.873Z,15.07
2022-10-03T13:35:38.887Z,13.13
2022-10-03T13:38:19.226Z,11.60
2022-10-03T13:40:52.573Z,11.57
2022-10-03T13:43:25.249Z,7.47
2022-10-03T13:45:56.867Z,9.07
2022-10-03T13:48:27.046Z,7.97
2022-10-03T13:50:58.739Z,10.80
2022-10-03T13:53:42.203Z,9.90
2022-10-03T13:56:11.556Z,8.87
2022-10-03T13:58:44.042Z,8.50
2022-10-03T14:01:27.880Z,8.23
2022-10-03T14:04:17.086Z,5.33
2022-10-03T14:06:46.893Z,4.77
2022-10-03T14:09:39.465Z,4.80
2022-10-03T14:12:13.485Z,6.47
2022-10-03T14:14:49.555Z,3.57
2022-10-03T14:17:20.534Z,5.00
2022-10-03T14:19:58.446Z,5.77
2022-10-03T14:22:34.152Z,3.07
2022-10-03T14:25:09.690Z,7.77
2022-10-03T14:27:43.482Z,3.30
2022-10-03T14:30:13.610Z,4.53
2022-10-03T14:32:48.739Z,4.57
2022-10-03T14:35:23.977Z,3.93
2022-10-03T14:37:54.051Z,5.23
2022-10-03T14:40:23.753Z,4.70
2022-10-03T14:43:16.038Z,3.90
2022-10-03T14:45:46.076Z,3.43
2022-10-03T14:48:18.338Z,4.57
2022-10-03T14:50:46.216Z,3.40
2022-10-03T14:53:17.654Z,5.43
2022-10-03T14:55:46.951Z,6.47
2022-10-03T14:58:18.827Z,4.93
2022-10-03T15:00:47.727Z,4.63
2022-10-03T15:03:25.445Z,5.37
2022-10-03T15:05:59.156Z,4.93
2022-10-03T15:08:30.676Z,6.83
2022-10-03T15:10:58.550Z,7.87
2022-10-03T15:13:26.411Z,8.63
2022-10-03T15:15:55.551Z,7.03
2022-10-03T15:18:25.153Z,9.33
2022-10-03T15:20:54.042Z,11.27
2022-10-03T15:23:22.919Z,9.23
2022-10-03T15:25:53.089Z,5.87
2022-10-03T15:28:22.228Z,8.90
2022-10-03T15:30:50.811Z,4.17
2022-10-03T15:33:20.839Z,4.53
2022-10-03T15:35:52.234Z,4.03
2022-10-03T15:38:24.884Z,6.87
2022-10-03T15:40:54.202Z,6.93
2022-10-03T15:43:29.564Z,6.20
2022-10-03T15:45:57.969Z,4.63
2022-10-03T15:48:27.975Z,7.83
2022-10-03T15:50:58.493Z,6.20
2022-10-03T15:53:42.193Z,6.20
2022-10-03T15:56:12.098Z,4.07
2022-10-03T15:58:40.348Z,6.47
2022-10-03T16:01:09.815Z,5.47
2022-10-03T16:03:41.892Z,4.60
2022-10-03T16:06:13.623Z,4.40
2022-10-03T16:08:48.493Z,4.47
2022-10-03T16:11:18.099Z,4.60
2022-10-03T16:13:47.581Z,4.80
2022-10-03T16:16:17.838Z,6.10
2022-10-03T16:19:05.458Z,4.37
2022-10-03T16:21:42.175Z,4.13
2022-10-03T16:24:23.210Z,7.20
2022-10-03T16:26:53.396Z,6.80
2022-10-03T16:29:22.602Z,6.07
2022-10-03T16:31:52.803Z,5.30
2022-10-03T16:34:21.977Z,3.93
2022-10-03T16:36:51.405Z,4.83
2022-10-03T16:39:22.241Z,4.13
2022-10-03T16:41:51.096Z,4.30
2022-10-03T16:44:20.447Z,6.33
2022-10-03T16:46:48.325Z,3.93
2022-10-03T16:49:46.094Z,3.57
2022-10-03T16:52:16.286Z,7.63
2022-10-03T16:54:44.179Z,5.97
2022-10-03T16:57:13.828Z,3.70
2022-10-03T16:59:42.548Z,4.10
2022-10-03T17:02:12.851Z,3.53
2022-10-03T17:04:41.770Z,4.23
2022-10-03T17:07:16.087Z,3.80
2022-10-03T17:09:46.085Z,5.57
2022-10-03T17:12:16.556Z,3.80
2022-10-03T17:14:44.657Z,3.43
2022-10-03T17:17:22.313Z,3.70
2022-10-03T17:19:52.002Z,3.80
2022-10-03T17:22:21.659Z,3.43
2022-10-03T17:24:50.400Z,3.57
2022-10-03T17:27:25.149Z,3.70
2022-10-03T17:29:56.831Z,3.30
2022-10-03T17:32:26.199Z,3.40
2022-10-03T17:34:58.552Z,3.53
2022-10-03T17:37:54.641Z,3.40
2022-10-03T17:40:24.000Z,3.10
2022-10-03T17:42:54.715Z,3.10
2022-10-03T17:45:34.338Z,3.10
2022-10-03T17:48:09.213Z,3.30
2022-10-03T17:50:39.343Z,3.10
2022-10-03T17:53:15.869Z,2.80
2022-10-03T17:55:44.635Z,2.80
2022-10-03T17:58:14.262Z,2.80
2022-10-03T18:00:59.079Z,3.13
2022-10-03T18:03:28.338Z,3.00
2022-10-03T18:05:59.506Z,2.87
2022-10-03T18:08:30.214Z,3.13
2022-10-03T18:11:00.012Z,3.20
2022-10-03T18:13:29.719Z,2.93
2022-10-03T18:16:07.453Z,2.27
2022-10-03T18:18:49.361Z,3.20
2022-10-03T18:21:20.295Z,2.80
2022-10-03T18:24:00.380Z,3.00
2022-10-03T18:26:29.668Z,2.70
2022-10-03T18:29:03.066Z,3.00
2022-10-03T18:31:34.319Z,2.40
2022-10-03T18:34:03.788Z,3.00
2022-10-03T18:36:32.529Z,2.77
2022-10-03T18:39:04.247Z,2.77
2022-10-03T18:41:32.108Z,2.90
2022-10-03T18:44:00.909Z,2.57
2022-10-03T18:46:30.826Z,2.60
2022-10-03T18:49:33.010Z,3.07
2022-10-03T18:51:51.532Z,2.77
2022-10-03T18:54:29.664Z,2.60
2022-10-03T18:57:09.731Z,2.70
2022-10-03T18:59:45.011Z,2.53
2022-10-03T19:02:17.592Z,2.50
2022-10-03T19:04:46.438Z,2.60
2022-10-03T19:07:18.043Z,2.47
2022-10-03T19:10:17.862Z,2.30
2022-10-03T19:12:47.490Z,2.80
2022-10-03T19:15:19.991Z,2.57
2022-10-03T19:17:52.149Z,2.50
2022-10-03T19:20:23.055Z,2.47
2022-10-03T19:22:58.513Z,2.17
2022-10-03T19:25:27.751Z,2.47
2022-10-03T19:27:58.318Z,2.50
2022-10-03T19:30:27.039Z,2.60
2022-10-03T19:32:56.256Z,2.27
2022-10-03T19:35:24.230Z,2.37
2022-10-03T19:37:52.977Z,2.43
2022-10-03T19:40:38.487Z,2.40
2022-10-03T19:43:23.827Z,2.43
2022-10-03T19:45:55.618Z,2.60
2022-10-03T19:48:23.547Z,2.33
2022-10-03T19:50:51.423Z,2.50
2022-10-03T19:53:19.484Z,2.27
2022-10-03T19:55:48.746Z,2.50
2022-10-03T19:58:21.950Z,2.40
2022-10-03T20:00:52.600Z,2.17
2022-10-03T20:03:24.154Z,2.27
2022-10-03T20:05:57.906Z,2.37
2022-10-03T20:08:27.112Z,2.10
2022-10-03T20:11:12.005Z,2.40
2022-10-03T20:13:42.996Z,2.10
2022-10-03T20:16:13.794Z,2.37
2022-10-03T20:18:41.718Z,2.70
2022-10-03T20:21:10.754Z,2.17
2022-10-03T20:23:41.010Z,2.17
2022-10-03T20:26:13.716Z,2.50
2022-10-03T20:29:04.655Z,2.30
2022-10-03T20:31:32.553Z,2.60
2022-10-03T20:34:01.881Z,2.30
2022-10-03T20:36:30.333Z,2.50
2022-10-03T20:39:08.131Z,2.20
2022-10-03T20:41:56.508Z,2.50
2022-10-03T20:44:30.389Z,2.20
2022-10-03T20:47:01.211Z,2.10
2022-10-03T20:49:31.091Z,2.17
2022-10-03T20:52:00.665Z,2.40
2022-10-03T20:54:31.971Z,2.10
2022-10-03T20:57:03.402Z,1.90
2022-10-03T20:59:36.206Z,2.60
2022-10-03T21:02:06.854Z,2.20
2022-10-03T21:04:38.407Z,2.33
2022-10-03T21:07:09.973Z,2.00
2022-10-03T21:09:42.288Z,2.30
2022-10-03T21:12:16.530Z,2.40
2022-10-03T21:14:45.133Z,2.20
2022-10-03T21:17:14.585Z,2.40
2022-10-03T21:19:45.636Z,2.20
2022-10-03T21:22:15.613Z,2.30
2022-10-03T21:24:45.461Z,2.13
2022-10-03T21:27:16.219Z,2.17
2022-10-03T21:29:54.048Z,2.30
2022-10-03T21:32:29.972Z,2.00
2022-10-03T21:35:00.706Z,2.10
2022-10-03T21:37:30.074Z,2.17
2022-10-03T21:40:12.331Z,2.33
2022-10-03T21:42:44.827Z,1.80
2022-10-03T21:45:21.363Z,2.43
2022-10-03T21:47:50.074Z,2.10
2022-10-03T21:50:20.535Z,2.10
2022-10-03T21:52:56.473Z,1.93
2022-10-03T21:55:51.603Z,2.10
2022-10-03T21:58:39.418Z,1.90
2022-10-03T22:01:13.178Z,2.00
2022-10-03T22:03:43.054Z,2.07
2022-10-03T22:06:15.963Z,1.90
2022-10-03T22:08:45.051Z,2.03
2022-10-03T22:11:20.590Z,1.90
2022-10-03T22:13:55.919Z,2.30
2022-10-03T22:16:26.643Z,2.17
2022-10-03T22:19:07.322Z,2.10
2022-10-03T22:21:37.972Z,2.40
2022-10-03T22:24:08.947Z,2.23
2022-10-03T22:26:38.825Z,2.00
2022-10-03T22:29:11.470Z,2.13
2022-10-03T22:31:42.872Z,1.97
2022-10-03T22:34:18.674Z,2.10
2022-10-03T22:36:46.523Z,2.20
2022-10-03T22:39:16.393Z,1.90
2022-10-03T22:41:44.702Z,2.00
2022-10-03T22:44:14.031Z,2.27
2022-10-03T22:46:43.538Z,1.70
2022-10-03T22:49:14.141Z,1.97
2022-10-03T22:51:42.201Z,2.13
2022-10-03T22:54:11.686Z,2.00
2022-10-03T22:56:42.896Z,2.00
2022-10-03T22:59:13.894Z,2.00
2022-10-03T23:01:44.502Z,2.10
2022-10-03T23:04:17.005Z,1.80
2022-10-03T23:07:09.785Z,2.00
2022-10-03T23:09:40.853Z,2.13
2022-10-03T23:12:09.987Z,1.90
2022-10-03T23:14:41.670Z,2.07
2022-10-03T23:17:14.340Z,2.03
2022-10-03T23:19:47.833Z,2.00
2022-10-03T23:22:17.068Z,2.10
2022-10-03T23:24:45.379Z,1.80
2022-10-03T23:27:42.303Z,1.60
2022-10-03T23:30:53.850Z,2.00
2022-10-03T23:33:51.900Z,2.20
2022-10-03T23:36:23.269Z,2.00
2022-10-03T23:38:59.802Z,2.00
2022-10-03T23:41:46.597Z,1.80
2022-10-03T23:44:30.630Z,2.20
2022-10-03T23:46:58.490Z,1.90
2022-10-03T23:49:28.507Z,2.03
2022-10-03T23:51:56.351Z,2.00
2022-10-03T23:54:24.210Z,2.07
2022-10-03T23:56:52.066Z,2.13
2022-10-03T23:59:22.826Z,2.03
